Time;durP1;ratioP1;P1;durP2;ratioP2;P2;SDS_P1;SDS_P2;PMS_P1;PMS_P2;Temp;Humidity;BMP_temperature;BMP_pressure;BME280_temperature;BME280_humidity;BME280_pressure;Samples;Min_cycle;Max_cycle;Signal;HPM_P1;HPM_P2
2022/05/21 00:01:09;;;;;;;2.20;2.00;;;24.20;57.30;25.20;101231.00;;;;4987847;28;20172;-53
2022/05/21 00:03:35;;;;;;;2.20;2.00;;;24.10;57.00;25.20;101177.00;;;;4988191;28;20176;-53
2022/05/21 00:06:01;;;;;;;2.13;2.00;;;24.10;57.00;25.20;101233.00;;;;4987965;28;20177;-52
2022/05/21 00:08:26;;;;;;;2.30;2.10;;;24.10;57.10;25.10;101236.00;;;;4987247;28;20200;-54
2022/05/21 00:10:52;;;;;;;2.30;2.10;;;24.10;57.00;25.10;101231.00;;;;4987788;28;20172;-53
2022/05/21 00:13:18;;;;;;;2.20;2.00;;;24.10;57.00;25.10;101230.00;;;;4991861;28;20432;-53
2022/05/21 00:15:44;;;;;;;2.00;1.90;;;24.10;57.00;25.10;101232.00;;;;4990567;28;20572;-53
2022/05/21 00:18:10;;;;;;;2.10;2.00;;;24.10;57.10;25.10;101230.00;;;;4989165;28;20172;-53
2022/05/21 00:20:47;;;;;;;2.00;1.90;;;24.00;56.90;25.10;101222.00;;;;4987861;28;20184;-54
2022/05/21 00:23:25;;;;;;;2.00;1.90;;;24.00;56.90;25.10;101224.00;;;;4987447;28;20195;-53
2022/05/21 00:26:05;;;;;;;2.03;1.93;;;24.00;56.90;25.00;101222.00;;;;4988035;28;20283;-52
2022/05/21 00:28:32;;;;;;;1.90;1.80;;;24.00;56.90;25.00;101238.00;;;;4986470;28;20291;-53
2022/05/21 00:30:58;;;;;;;1.90;1.80;;;24.00;56.90;25.00;101225.00;;;;4987424;28;20649;-54
2022/05/21 00:33:24;;;;;;;2.00;1.90;;;23.90;56.70;25.00;101227.00;;;;4987602;28;20176;-54
2022/05/21 00:35:50;;;;;;;2.17;1.90;;;23.90;56.70;25.00;101226.00;;;;4987423;28;20172;-54
2022/05/21 00:38:16;;;;;;;2.13;2.00;;;23.90;56.70;24.90;101229.00;;;;4987452;28;20176;-54
2022/05/21 00:40:41;;;;;;;1.80;1.70;;;23.90;56.70;24.90;101219.00;;;;4987672;28;20642;-53
2022/05/21 00:43:36;;;;;;;2.27;2.07;;;23.90;56.70;24.90;101224.00;;;;4987157;28;20218;-53
2022/05/21 00:46:03;;;;;;;2.30;2.10;;;23.90;56.70;24.90;101230.00;;;;4987612;28;20733;-53
2022/05/21 00:48:29;;;;;;;2.30;2.10;;;23.90;56.70;24.90;101220.00;;;;4986944;28;20728;-53
2022/05/21 00:50:54;;;;;;;2.10;1.90;;;23.80;56.60;24.90;101237.00;;;;4987265;28;20176;-52
2022/05/21 00:53:20;;;;;;;2.10;2.00;;;23.80;56.60;24.90;101235.00;;;;4985890;28;20175;-56
2022/05/21 00:55:46;;;;;;;2.73;2.10;;;23.80;56.60;24.80;101240.00;;;;4969842;28;20595;-52
2022/05/21 01:00:57;;;;;;;1.83;1.70;;;23.80;56.60;24.80;101246.00;;;;4972327;28;20315;-53
2022/05/21 01:03:23;;;;;;;1.80;1.70;;;23.80;56.60;24.80;101189.00;;;;4969649;28;20176;-53
2022/05/21 01:05:49;;;;;;;2.30;1.90;;;23.80;56.60;24.80;101239.00;;;;4969419;28;20164;-54
2022/05/21 01:08:15;;;;;;;1.80;1.70;;;23.80;56.60;24.80;101245.00;;;;4986825;28;20702;-55
2022/05/21 01:10:49;;;;;;;2.10;1.90;;;23.80;56.50;24.80;101235.00;;;;4986936;28;20251;-53
2022/05/21 01:13:17;;;;;;;2.00;1.90;;;23.70;56.50;24.70;101214.00;;;;4969979;28;20650;-54
2022/05/21 01:15:46;;;;;;;1.90;1.80;;;23.70;56.50;24.70;101227.00;;;;4969288;28;20204;-54
2022/05/21 01:18:11;;;;;;;1.90;1.80;;;23.70;56.40;24.70;101239.00;;;;4985247;28;20241;-53
2022/05/21 01:20:41;;;;;;;1.83;1.73;;;23.70;56.50;24.70;101236.00;;;;4986886;28;20207;-52
2022/05/21 01:23:06;;;;;;;1.90;1.80;;;23.70;56.40;24.70;101232.00;;;;4987219;28;20184;-52
2022/05/21 01:25:34;;;;;;;1.90;1.80;;;23.70;56.40;24.70;101226.00;;;;4986860;28;20179;-54
2022/05/21 01:28:00;;;;;;;2.00;1.90;;;23.60;56.30;24.60;101230.00;;;;4970170;28;20561;-53
2022/05/21 01:30:37;;;;;;;1.80;1.70;;;23.60;56.30;24.60;101226.00;;;;4993089;28;20901;-54
2022/05/21 01:33:05;;;;;;;2.00;1.80;;;23.60;56.40;24.60;101224.00;;;;4992119;28;20609;-53
2022/05/21 01:35:31;;;;;;;2.10;1.90;;;23.60;56.40;24.60;101228.00;;;;4992215;28;20187;-53
2022/05/21 01:37:57;;;;;;;2.33;2.00;;;23.60;56.40;24.60;101228.00;;;;4992803;28;20259;-53
2022/05/21 01:40:22;;;;;;;1.80;1.70;;;23.60;56.30;24.60;101226.00;;;;4993391;28;20255;-54
2022/05/21 01:44:37;;;;;;;2.00;1.90;;;23.50;56.30;24.60;101220.00;;;;4993023;28;20172;-55
2022/05/21 01:45:35;;;;;;;2.10;1.90;;;23.60;56.40;24.50;101228.00;;;;4993040;28;20211;-55
2022/05/21 01:48:02;;;;;;;2.30;1.90;;;23.50;56.20;24.50;101229.00;;;;4993111;28;20207;-54
2022/05/21 01:50:29;;;;;;;2.00;1.90;;;23.50;56.20;24.50;101225.00;;;;4992473;28;20196;-54
2022/05/21 01:52:55;;;;;;;2.43;1.80;;;23.50;56.20;24.50;101228.00;;;;4992981;28;20160;-53
2022/05/21 01:55:20;;;;;;;2.00;1.90;;;23.50;56.20;24.50;101234.00;;;;4991947;28;20179;-53
2022/05/21 01:57:46;;;;;;;2.30;2.10;;;23.50;56.20;24.50;101229.00;;;;4992787;28;20207;-54
2022/05/21 02:00:13;;;;;;;2.00;1.90;;;23.50;56.20;24.40;101232.00;;;;4992451;28;20271;-53
2022/05/21 02:02:39;;;;;;;2.10;1.90;;;23.50;56.20;24.40;101180.00;;;;4992839;28;20304;-53
2022/05/21 02:05:05;;;;;;;1.90;1.80;;;23.50;56.20;24.40;101232.00;;;;4992963;28;20180;-53
2022/05/21 02:07:32;;;;;;;2.10;2.00;;;23.40;56.10;24.40;101235.00;;;;4992423;28;20307;-55
2022/05/21 02:09:58;;;;;;;2.20;2.00;;;23.40;56.10;24.40;101238.00;;;;4992665;28;20192;-56
2022/05/21 02:12:24;;;;;;;2.07;1.97;;;23.40;56.00;24.40;101224.00;;;;4992839;28;20175;-54
2022/05/21 02:14:50;;;;;;;2.27;2.07;;;23.40;56.00;24.40;101237.00;;;;4997030;28;20177;-54
2022/05/21 02:17:17;;;;;;;2.20;2.00;;;23.40;56.00;24.40;101232.00;;;;5001394;28;20185;-54
2022/05/21 02:19:43;;;;;;;2.23;2.00;;;23.40;56.10;24.40;101227.00;;;;5000281;28;20700;-53
2022/05/21 02:22:09;;;;;;;2.00;1.90;;;23.30;56.00;24.30;101221.00;;;;4992839;28;20235;-54
2022/05/21 02:24:35;;;;;;;2.13;1.93;;;23.40;56.00;24.30;101221.00;;;;4992418;28;20539;-54
2022/05/21 02:27:00;;;;;;;2.70;1.87;;;23.30;56.00;24.30;101221.00;;;;4992261;28;20198;-56
2022/05/21 02:29:26;;;;;;;2.37;1.90;;;23.30;56.00;24.30;101220.00;;;;4992877;28;20192;-55
2022/05/21 02:31:53;;;;;;;2.43;2.00;;;23.30;55.90;24.30;101223.00;;;;4995673;28;20199;-54
2022/05/21 02:34:18;;;;;;;2.00;1.90;;;23.30;55.90;24.30;101221.00;;;;4996480;28;20202;-55
2022/05/21 02:39:30;;;;;;;1.73;1.63;;;23.20;55.80;24.20;101223.00;;;;4992697;28;20271;-54
2022/05/21 02:41:58;;;;;;;2.10;1.80;;;23.20;55.80;24.20;101214.00;;;;4989089;28;20267;-54
2022/05/21 02:44:24;;;;;;;2.20;2.00;;;23.20;55.90;24.20;101210.00;;;;4988334;28;20219;-54
2022/05/21 02:46:50;;;;;;;2.10;1.90;;;23.20;55.80;24.20;101218.00;;;;4989387;28;20649;-55
2022/05/21 02:49:16;;;;;;;2.00;1.90;;;23.20;55.90;24.20;101214.00;;;;4989094;28;20238;-55
2022/05/21 02:51:41;;;;;;;2.43;2.03;;;23.20;55.90;24.20;101210.00;;;;4989079;28;20633;-52
2022/05/21 02:54:09;;;;;;;2.10;2.00;;;23.20;55.90;24.10;101215.00;;;;4989262;28;20176;-54
2022/05/21 02:56:36;;;;;;;4.60;4.20;;;23.20;55.80;24.10;101207.00;;;;4989089;28;20207;-52
2022/05/21 02:59:06;;;;;;;5.10;4.60;;;23.10;54.50;24.10;101213.00;;;;4988780;28;20213;-54
2022/05/21 03:01:33;;;;;;;5.47;4.97;;;22.80;52.50;24.00;101204.00;;;;4989428;28;20184;-53
2022/05/21 03:04:00;;;;;;;5.20;4.80;;;22.70;52.30;23.90;101196.00;;;;4989385;28;20253;-52
2022/05/21 03:06:25;;;;;;;5.67;4.30;;;22.70;52.40;23.90;101216.00;;;;4979559;28;20188;-54
2022/05/21 03:11:36;;;;;;;5.27;4.77;;;22.50;51.80;23.80;101219.00;;;;4988495;28;20211;-55
2022/05/21 03:14:01;;;;;;;5.53;4.23;;;22.30;51.70;23.70;101218.00;;;;4988559;28;20677;-54
2022/05/21 03:16:27;;;;;;;5.40;4.30;;;22.30;52.10;23.70;101224.00;;;;4988608;28;20165;-54
2022/05/21 03:18:53;;;;;;;5.27;3.80;;;22.20;51.40;23.60;101216.00;;;;4986820;28;20235;-53
2022/05/21 03:21:19;;;;;;;4.63;3.90;;;22.10;51.70;23.60;101228.00;;;;4988274;28;20242;-53
2022/05/21 03:23:44;;;;;;;5.53;3.80;;;22.20;52.00;23.50;101235.00;;;;4988243;28;20234;-54
2022/05/21 03:26:10;;;;;;;5.67;3.50;;;22.10;51.90;23.50;101228.00;;;;4988190;28;20594;-56
2022/05/21 03:28:36;;;;;;;5.13;3.70;;;21.90;51.00;23.40;101231.00;;;;4987773;28;20721;-53
2022/05/21 03:31:02;;;;;;;4.63;3.43;;;21.90;51.30;23.30;101243.00;;;;4988429;28;20179;-53
2022/05/21 03:33:28;;;;;;;4.57;3.40;;;21.70;51.40;23.30;101237.00;;;;4988130;28;20670;-54
2022/05/21 03:35:53;;;;;;;5.47;3.23;;;21.60;51.50;23.20;101242.00;;;;4988778;28;20181;-53
2022/05/21 03:38:19;;;;;;;5.00;3.13;;;21.60;51.70;23.10;101242.00;;;;4987898;28;20703;-54
2022/05/21 03:40:45;;;;;;;6.43;3.57;;;21.60;51.60;23.10;101233.00;;;;4987668;28;20183;-55
2022/05/21 03:43:11;;;;;;;5.97;3.13;;;21.40;52.00;23.00;101251.00;;;;4986737;28;20239;-53
2022/05/21 03:45:36;;;;;;;5.07;2.93;;;21.40;52.20;23.00;101254.00;;;;4988128;28;20214;-52
2022/05/21 03:48:05;;;;;;;4.83;3.00;;;21.40;52.00;22.90;101251.00;;;;4988038;28;20680;-53
2022/05/21 03:50:32;;;;;;;7.00;2.90;;;21.30;52.30;22.90;101257.00;;;;4987844;28;20290;-53
2022/05/21 03:52:59;;;;;;;4.60;2.90;;;21.20;52.20;22.80;101252.00;;;;4986990;28;20287;-54
2022/05/21 03:55:25;;;;;;;5.80;2.87;;;21.10;52.40;22.80;101249.00;;;;4987845;28;20223;-53
2022/05/21 03:57:50;;;;;;;5.27;2.90;;;21.10;52.40;22.70;101246.00;;;;4988020;28;20192;-52
2022/05/21 04:00:17;;;;;;;5.20;2.80;;;21.00;52.20;22.70;101240.00;;;;4987623;28;20207;-53
2022/05/21 04:02:43;;;;;;;4.27;2.50;;;20.90;52.70;22.60;101245.00;;;;4987947;28;20195;-53
2022/05/21 04:05:09;;;;;;;4.50;2.70;;;20.80;53.00;22.60;101244.00;;;;4987959;28;20553;-54
2022/05/21 04:07:35;;;;;;;4.97;2.70;;;20.80;52.90;22.50;101242.00;;;;4986171;28;20225;-54
2022/05/21 04:10:01;;;;;;;4.83;2.73;;;20.80;52.80;22.50;101247.00;;;;4970107;28;20712;-54
2022/05/21 04:12:27;;;;;;;5.60;2.43;;;20.90;53.00;22.50;101241.00;;;;4987668;28;20165;-53
2022/05/21 04:14:52;;;;;;;3.57;2.90;;;21.00;52.90;22.50;101252.00;;;;4987547;28;20678;-54
2022/05/21 04:17:18;;;;;;;5.20;2.80;;;20.90;52.60;22.40;101246.00;;;;4989235;28;20180;-54
2022/05/21 04:19:44;;;;;;;4.57;2.73;;;20.80;52.90;22.40;101246.00;;;;4989360;28;20529;-55
2022/05/21 04:22:09;;;;;;;6.73;2.80;;;20.70;53.00;22.40;101250.00;;;;4988199;28;20234;-55
2022/05/21 04:24:35;;;;;;;4.53;2.70;;;20.70;52.90;22.30;101249.00;;;;4987918;28;20179;-54
2022/05/21 04:27:01;;;;;;;6.50;2.80;;;20.60;53.30;22.30;101256.00;;;;4986206;28;20161;-53
2022/05/21 04:29:27;;;;;;;6.43;2.90;;;20.60;53.30;22.30;101250.00;;;;4987068;28;20232;-53
2022/05/21 04:31:52;;;;;;;4.60;2.93;;;20.70;53.30;22.20;101246.00;;;;4986881;28;20278;-53
2022/05/21 04:34:18;;;;;;;4.23;2.60;;;20.60;53.20;22.20;101259.00;;;;4987154;28;20180;-53
2022/05/21 04:36:44;;;;;;;4.27;2.57;;;20.60;53.30;22.20;101257.00;;;;4986848;28;20167;-53
2022/05/21 04:39:10;;;;;;;6.13;2.80;;;20.50;53.50;22.10;101259.00;;;;4985578;28;20191;-52
2022/05/21 04:41:36;;;;;;;4.37;2.70;;;20.50;53.60;22.10;101263.00;;;;4986486;28;20735;-54
2022/05/21 04:44:02;;;;;;;5.00;2.97;;;20.50;53.60;22.10;101270.00;;;;4987182;28;20838;-52
2022/05/21 04:46:28;;;;;;;3.83;2.70;;;20.40;53.60;22.00;101258.00;;;;4986960;28;20282;-52
2022/05/21 04:48:54;;;;;;;5.73;3.10;;;20.30;53.60;22.00;101273.00;;;;4986855;28;20756;-52
2022/05/21 04:51:19;;;;;;;4.67;2.93;;;20.30;53.70;21.90;101265.00;;;;4985320;28;20230;-53
2022/05/21 04:53:45;;;;;;;6.00;2.90;;;20.30;53.90;21.90;101267.00;;;;4986988;28;20720;-54
2022/05/21 04:56:11;;;;;;;5.50;2.77;;;20.30;53.80;21.90;101281.00;;;;4986852;28;20209;-53
2022/05/21 04:58:37;;;;;;;4.80;2.90;;;20.30;53.80;21.90;101298.00;;;;4986614;28;20217;-54
2022/05/21 05:01:02;;;;;;;5.03;2.90;;;20.20;53.90;21.80;101285.00;;;;4986244;28;20170;-52
2022/05/21 05:03:28;;;;;;;4.70;2.90;;;20.10;54.00;21.80;101297.00;;;;4986629;28;20173;-53
2022/05/21 05:05:54;;;;;;;4.87;2.90;;;20.00;54.00;21.70;101285.00;;;;4986563;28;20182;-52
2022/05/21 05:08:20;;;;;;;6.47;3.20;;;19.90;54.20;21.70;101308.00;;;;4969542;28;20717;-54
2022/05/21 05:10:46;;;;;;;6.13;3.30;;;19.80;54.40;21.60;101298.00;;;;4986953;28;20546;-52
2022/05/21 05:13:12;;;;;;;5.27;2.80;;;19.80;54.30;21.60;101298.00;;;;4986904;28;20189;-53
2022/05/21 05:15:38;;;;;;;7.13;3.00;;;19.80;54.50;21.50;101303.00;;;;4986090;28;20168;-53
2022/05/21 05:18:09;;;;;;;6.47;3.20;;;19.70;54.30;21.50;101297.00;;;;4969256;28;20180;-52
2022/05/21 05:20:35;;;;;;;3.77;2.87;;;19.70;54.30;21.50;101311.00;;;;4986364;28;20204;-54
2022/05/21 05:23:01;;;;;;;5.90;3.40;;;19.70;54.30;21.40;101291.00;;;;4985910;28;20196;-53
2022/05/21 05:25:27;;;;;;;5.23;3.30;;;19.60;54.20;21.40;101306.00;;;;4986252;28;20168;-53
2022/05/21 05:27:53;;;;;;;6.13;3.30;;;19.50;54.50;21.30;101299.00;;;;4985290;28;20207;-52
2022/05/21 05:30:20;;;;;;;6.07;3.20;;;19.60;54.60;21.30;101306.00;;;;4986927;28;20818;-52
2022/05/21 05:32:45;;;;;;;5.60;2.97;;;19.50;54.30;21.20;101313.00;;;;4987064;28;20172;-54
2022/05/21 05:35:11;;;;;;;5.13;3.10;;;19.50;54.40;21.20;101315.00;;;;4987365;28;20172;-53
2022/05/21 05:37:37;;;;;;;4.80;3.20;;;19.50;54.50;21.20;101301.00;;;;4986887;28;20178;-53
2022/05/21 05:40:05;;;;;;;6.30;3.60;;;19.50;54.30;21.20;101300.00;;;;4994725;28;20194;-53
2022/05/21 05:42:30;;;;;;;6.80;3.40;;;19.50;54.30;21.20;101303.00;;;;5009133;28;20199;-54
2022/05/21 05:44:56;;;;;;;5.90;3.17;;;19.50;54.40;21.20;101304.00;;;;5004079;28;20172;-55
2022/05/21 05:47:22;;;;;;;4.93;3.60;;;19.50;54.20;21.10;101306.00;;;;4986733;28;20227;-54
2022/05/21 05:49:47;;;;;;;6.77;3.57;;;19.40;54.60;21.10;101303.00;;;;4986618;28;20400;-52
2022/05/21 05:52:13;;;;;;;4.80;3.00;;;19.30;54.60;21.10;101306.00;;;;4986679;28;20195;-54
2022/05/21 05:54:39;;;;;;;5.70;3.40;;;19.30;54.60;21.00;101304.00;;;;4986763;28;20179;-53
2022/05/21 05:57:09;;;;;;;5.80;3.20;;;19.20;54.70;21.00;101295.00;;;;4986863;28;20176;-55
2022/05/21 05:59:50;;;;;;;5.43;3.30;;;19.20;54.90;21.00;101306.00;;;;4986460;28;20192;-54
2022/05/21 06:05:06;;;;;;;6.10;3.63;;;19.40;55.00;21.00;101306.00;;;;4986633;28;20160;-54
2022/05/21 06:07:31;;;;;;;7.40;3.40;;;19.40;55.00;21.00;101280.00;;;;4985520;28;20212;-53
2022/05/21 06:10:05;;;;;;;5.53;3.20;;;19.30;55.10;20.90;101310.00;;;;4982259;28;20687;-54
2022/05/21 06:12:31;;;;;;;5.23;3.23;;;19.20;55.10;20.90;101310.00;;;;4979989;28;20169;-54
2022/05/21 06:14:57;;;;;;;4.87;3.20;;;19.20;55.30;20.90;101318.00;;;;4968939;28;20197;-53
2022/05/21 06:17:23;;;;;;;4.87;3.10;;;19.20;55.30;20.90;101323.00;;;;4973331;28;20183;-55
2022/05/21 06:19:49;;;;;;;6.73;3.30;;;19.10;55.20;20.80;101329.00;;;;4970666;28;20683;-52
2022/05/21 06:22:14;;;;;;;5.53;3.23;;;19.10;55.40;20.80;101312.00;;;;4970552;28;20199;-53
2022/05/21 06:24:40;;;;;;;7.30;3.70;;;19.00;55.50;20.80;101334.00;;;;4970220;28;20555;-53
2022/05/21 06:27:06;;;;;;;7.47;3.70;;;18.90;55.30;20.70;101318.00;;;;4952956;28;20197;-54
2022/05/21 06:29:32;;;;;;;7.23;3.30;;;18.90;55.50;20.70;101323.00;;;;4969933;28;20196;-51
2022/05/21 06:31:57;;;;;;;6.80;3.20;;;18.90;55.80;20.70;101327.00;;;;4969699;28;20267;-51
2022/05/21 06:34:24;;;;;;;6.03;2.80;;;19.20;55.40;20.80;101315.00;;;;4970059;28;20184;-49
2022/05/21 06:36:50;;;;;;;4.67;2.93;;;19.40;55.00;20.80;101323.00;;;;4970440;28;20177;-49
2022/05/21 06:39:15;;;;;;;5.23;2.83;;;19.60;55.10;20.90;101328.00;;;;4968627;28;20352;-49
2022/05/21 06:41:41;;;;;;;6.37;3.00;;;19.70;54.90;20.90;101318.00;;;;4969561;28;20173;-49
2022/05/21 06:44:07;;;;;;;5.13;2.80;;;19.80;54.80;20.90;101328.00;;;;4972510;28;20199;-49
2022/05/21 06:46:33;;;;;;;5.97;2.73;;;19.90;54.80;21.00;101315.00;;;;4988516;28;20203;-50
2022/05/21 06:48:59;;;;;;;4.37;2.87;;;20.00;54.70;21.00;101317.00;;;;4988874;28;20749;-49
2022/05/21 06:51:24;;;;;;;4.97;2.80;;;20.00;54.70;21.10;101319.00;;;;4988489;28;20177;-50
2022/05/21 06:53:50;;;;;;;4.80;2.87;;;20.00;54.60;21.10;101322.00;;;;4972144;28;20215;-48
2022/05/21 06:56:16;;;;;;;5.70;2.70;;;20.00;54.60;21.10;101328.00;;;;4987013;28;20188;-49
2022/05/21 06:58:42;;;;;;;3.33;2.70;;;20.10;54.60;21.20;101328.00;;;;4988457;28;20247;-49
2022/05/21 07:01:09;;;;;;;6.10;2.80;;;20.20;55.10;21.20;101310.00;;;;4988122;28;20270;-53
2022/05/21 07:03:34;;;;;;;3.60;2.83;;;20.10;54.30;21.20;101330.00;;;;4988677;28;20169;-50
2022/05/21 07:08:45;;;;;;;4.03;2.60;;;20.20;54.20;21.20;101329.00;;;;4987497;28;20218;-48
2022/05/21 07:11:11;;;;;;;3.43;2.67;;;20.30;54.10;21.20;101336.00;;;;4988408;28;20177;-49
2022/05/21 07:13:36;;;;;;;3.03;2.67;;;20.40;54.00;21.20;101330.00;;;;4988426;28;20184;-49
2022/05/21 07:16:02;;;;;;;8.50;2.90;;;20.40;54.00;21.20;101341.00;;;;4988317;28;20180;-51
2022/05/21 07:18:28;;;;;;;4.47;2.60;;;20.30;55.40;21.20;101339.00;;;;4988510;28;20187;-49
2022/05/21 07:20:54;;;;;;;3.80;2.53;;;20.30;55.30;21.20;101339.00;;;;4987181;28;20380;-50
2022/05/21 07:23:21;;;;;;;3.50;2.80;;;20.30;54.50;21.20;101342.00;;;;4988259;28;20180;-49
2022/05/21 07:25:50;;;;;;;5.30;3.00;;;20.30;54.40;21.20;101350.00;;;;4987991;28;20173;-48
2022/05/21 07:28:15;;;;;;;4.17;2.60;;;20.30;54.40;21.20;101345.00;;;;4987505;28;20204;-49
2022/05/21 07:30:42;;;;;;;3.77;2.77;;;20.30;54.40;21.20;101352.00;;;;4987373;28;20649;-50
2022/05/21 07:33:14;;;;;;;7.43;2.83;;;20.40;54.50;21.20;101337.00;;;;4988173;28;20552;-48
2022/05/21 07:35:40;;;;;;;3.57;2.70;;;20.40;54.50;21.20;101347.00;;;;4987966;28;20183;-49
2022/05/21 07:38:06;;;;;;;3.00;2.60;;;20.40;54.50;21.20;101347.00;;;;4988521;28;20185;-49
2022/05/21 07:40:32;;;;;;;4.60;2.53;;;20.40;54.50;21.30;101357.00;;;;4988322;28;20227;-49
2022/05/21 07:42:58;;;;;;;2.97;2.57;;;20.40;54.70;21.30;101358.00;;;;4987710;28;20200;-50
2022/05/21 07:45:24;;;;;;;3.60;2.60;;;20.30;54.50;21.30;101361.00;;;;4987619;28;20180;-50
2022/05/21 07:47:50;;;;;;;3.70;2.40;;;20.40;54.60;21.30;101359.00;;;;4987664;28;20253;-49
2022/05/21 07:50:16;;;;;;;3.23;2.57;;;20.30;54.50;21.30;101352.00;;;;4987780;28;20212;-49
2022/05/21 07:52:42;;;;;;;3.97;2.67;;;20.30;54.50;21.30;101369.00;;;;4987066;28;20660;-49
2022/05/21 07:55:09;;;;;;;4.83;2.73;;;20.40;54.70;21.30;101367.00;;;;4987167;28;20177;-48
2022/05/21 07:57:35;;;;;;;4.10;2.73;;;20.40;54.50;21.30;101372.00;;;;4892586;28;20177;-49
2022/05/21 08:00:01;;;;;;;3.63;2.70;;;20.40;54.60;21.30;101368.00;;;;4986721;28;20209;-48
2022/05/21 08:02:27;;;;;;;3.20;2.60;;;20.40;54.60;21.40;101376.00;;;;4986902;28;20165;-49
2022/05/21 08:04:52;;;;;;;2.90;2.50;;;20.50;54.70;21.40;101367.00;;;;4987136;28;20182;-49
2022/05/21 08:07:18;;;;;;;3.53;2.73;;;20.40;54.60;21.40;101375.00;;;;4986640;28;20207;-49
2022/05/21 08:09:44;;;;;;;2.73;2.27;;;20.40;54.60;21.40;101377.00;;;;4987514;28;20196;-50
2022/05/21 08:12:14;;;;;;;3.80;2.60;;;20.50;54.80;21.40;101372.00;;;;4987829;28;20170;-50
2022/05/21 08:14:41;;;;;;;3.83;2.70;;;20.40;54.60;21.40;101376.00;;;;4987034;28;20165;-50
2022/05/21 08:17:08;;;;;;;3.70;2.70;;;20.40;54.60;21.40;101372.00;;;;4988796;28;20178;-49
2022/05/21 08:19:34;;;;;;;3.20;2.50;;;20.40;54.60;21.40;101365.00;;;;4987710;28;20888;-49
2022/05/21 08:26:56;;;;;;;3.70;2.60;;;20.40;54.60;21.40;101368.00;;;;4987112;28;20196;-49
2022/05/21 08:27:29;;;;;;;3.67;2.60;;;20.50;54.70;21.40;101378.00;;;;4987029;28;20250;-49
2022/05/21 08:29:55;;;;;;;3.50;2.63;;;20.50;54.60;21.40;101375.00;;;;4987084;28;20397;-49
2022/05/21 08:32:21;;;;;;;5.33;2.70;;;20.60;55.10;21.40;101377.00;;;;4985979;28;20184;-49
2022/05/21 08:34:46;;;;;;;3.50;2.50;;;20.50;55.00;21.50;101374.00;;;;4987745;28;20191;-49
2022/05/21 08:37:12;;;;;;;9.17;3.00;;;20.50;55.20;21.50;101380.00;;;;4987093;28;20189;-49
2022/05/21 08:39:38;;;;;;;3.67;2.60;;;20.60;55.30;21.50;101387.00;;;;4986270;28;20729;-48
2022/05/21 08:42:17;;;;;;;6.37;2.70;;;20.50;55.00;21.50;101381.00;;;;4987514;28;20173;-50
2022/05/21 08:44:48;;;;;;;6.97;3.10;;;20.60;55.10;21.50;101391.00;;;;4971454;28;20629;-50
2022/05/21 08:47:35;;;;;;;10.20;3.97;;;20.60;55.10;21.50;101385.00;;;;4985313;28;20193;-48
2022/05/21 08:50:11;;;;;;;11.23;4.37;;;20.60;55.10;21.50;101387.00;;;;4969370;28;20250;-48
2022/05/21 08:52:55;;;;;;;11.57;5.10;;;20.60;55.10;21.50;101378.00;;;;4985382;28;20272;-48
2022/05/21 08:55:28;;;;;;;9.60;4.67;;;20.60;55.10;21.50;101384.00;;;;4986226;28;20193;-49
2022/05/21 08:58:03;;;;;;;10.43;4.30;;;20.60;55.10;21.50;101367.00;;;;4738585;28;20249;-49
2022/05/21 09:00:38;;;;;;;9.93;4.47;;;20.50;55.00;21.50;101377.00;;;;4969493;28;20262;-48
2022/05/21 09:03:11;;;;;;;10.40;4.67;;;20.50;55.00;21.50;101384.00;;;;4985587;28;20174;-49
2022/05/21 09:05:38;;;;;;;8.93;3.93;;;20.60;55.10;21.50;101394.00;;;;4987199;28;20262;-50
2022/05/21 09:08:40;;;;;;;8.23;3.93;;;20.60;55.20;21.60;101392.00;;;;4971120;28;20193;-49
2022/05/21 09:11:15;;;;;;;10.00;4.40;;;20.60;55.10;21.50;101395.00;;;;4973312;28;20185;-48
2022/05/21 09:14:12;;;;;;;8.37;3.87;;;20.60;55.20;21.50;101399.00;;;;4985334;28;20180;-50
2022/05/21 09:16:54;;;;;;;9.83;4.57;;;20.60;55.10;21.50;101391.00;;;;4985742;28;20622;-52
2022/05/21 09:19:42;;;;;;;6.90;4.03;;;20.60;55.30;21.60;101388.00;;;;4986378;28;20887;-49
2022/05/21 09:22:11;;;;;;;8.10;4.20;;;20.60;55.20;21.60;101386.00;;;;4986107;28;20202;-49
2022/05/21 09:24:44;;;;;;;10.57;3.97;;;20.60;55.20;21.60;101382.00;;;;4985680;28;20170;-48
2022/05/21 09:27:31;;;;;;;6.27;3.70;;;20.70;55.30;21.60;101382.00;;;;4986282;28;20601;-49
2022/05/21 09:30:42;;;;;;;7.80;3.50;;;20.60;55.40;21.60;101394.00;;;;4986652;28;20204;-49
2022/05/21 09:33:41;;;;;;;6.43;3.63;;;20.70;55.50;21.60;101396.00;;;;4968789;28;20546;-49
2022/05/21 09:36:06;;;;;;;6.03;3.57;;;20.70;55.30;21.60;101396.00;;;;4986668;28;20163;-51
2022/05/21 09:38:53;;;;;;;6.37;3.60;;;20.60;55.50;21.60;101391.00;;;;4986346;28;20589;-49
2022/05/21 09:41:22;;;;;;;8.20;3.90;;;20.60;55.50;21.60;101391.00;;;;4987198;28;20252;-49
2022/05/21 09:46:42;;;;;;;6.30;3.47;;;20.60;55.50;21.60;101371.00;;;;4985546;28;20177;-51
2022/05/21 09:49:30;;;;;;;4.70;3.30;;;20.70;56.00;21.60;101387.00;;;;4985150;28;20215;-48
2022/05/21 09:52:04;;;;;;;6.37;3.57;;;20.70;55.70;21.60;101380.00;;;;4989669;28;20163;-50
2022/05/21 09:54:40;;;;;;;6.80;3.40;;;20.70;55.70;21.40;101381.00;;;;4989489;28;20224;-49
2022/05/21 09:57:06;;;;;;;5.10;3.40;;;20.60;56.00;21.70;101372.00;;;;4822336;28;23633;-50
2022/05/21 09:59:33;;;;;;;6.13;3.43;;;20.70;55.80;21.70;101369.00;;;;4957186;28;20232;-49
2022/05/21 10:02:02;;;;;;;7.07;3.40;;;20.60;55.80;21.70;101368.00;;;;4974645;28;20176;-49
2022/05/21 10:04:50;;;;;;;6.53;3.37;;;20.70;55.80;21.70;101379.00;;;;4989494;28;20182;-48
2022/05/21 10:11:00;;;;;;;6.63;3.40;;;20.60;55.90;21.70;101377.00;;;;4989663;28;20209;-48
2022/05/21 10:13:30;;;;;;;5.07;3.23;;;20.70;56.00;21.70;101386.00;;;;4989314;28;20198;-49
2022/05/21 10:16:33;;;;;;;5.67;3.70;;;20.70;56.10;21.70;101388.00;;;;4957048;28;20241;-50
2022/05/21 10:19:33;;;;;;;4.73;2.90;;;20.60;56.20;21.70;101382.00;;;;4988662;28;20250;-48
2022/05/21 10:22:21;;;;;;;6.07;3.20;;;20.70;56.40;21.70;101374.00;;;;4988788;28;20192;-49
2022/05/21 10:25:01;;;;;;;4.87;3.13;;;20.70;56.40;21.70;101379.00;;;;4986079;28;20208;-48
2022/05/21 10:27:45;;;;;;;6.63;3.57;;;20.60;56.80;21.80;101371.00;;;;4985828;28;20220;-49
2022/05/21 10:30:18;;;;;;;6.97;3.20;;;20.60;57.00;21.80;101376.00;;;;4971282;28;20654;-49
2022/05/21 10:33:02;;;;;;;6.50;3.13;;;20.60;56.90;21.80;101375.00;;;;4958744;28;20632;-50
2022/05/21 10:35:49;;;;;;;6.43;3.43;;;20.60;56.90;21.80;101377.00;;;;4971204;28;20202;-48
2022/05/21 10:38:37;;;;;;;6.10;2.90;;;20.60;56.90;21.80;101384.00;;;;4972221;28;20535;-49
2022/05/21 10:41:14;;;;;;;6.00;3.17;;;20.60;56.90;21.80;101378.00;;;;4971691;28;20695;-49
2022/05/21 10:44:12;;;;;;;6.97;2.97;;;20.60;56.90;21.80;101384.00;;;;4971490;28;20178;-50
2022/05/21 10:47:03;;;;;;;4.83;2.93;;;20.70;57.00;21.80;101384.00;;;;4970577;28;20186;-48
2022/05/21 10:49:57;;;;;;;4.47;3.33;;;20.70;57.00;21.80;101378.00;;;;4970354;28;20257;-49
2022/05/21 10:52:44;;;;;;;8.13;2.77;;;20.60;56.90;21.80;101394.00;;;;4989121;28;20275;-49
2022/05/21 10:55:59;;;;;;;4.63;2.70;;;20.70;57.10;21.80;101380.00;;;;4990889;28;20189;-49
2022/05/21 10:58:36;;;;;;;4.90;2.90;;;20.70;57.10;21.80;101375.00;;;;4798894;28;20488;-49
2022/05/21 11:01:16;;;;;;;6.23;3.30;;;20.70;57.10;21.80;101382.00;;;;4974099;28;20218;-51
2022/05/21 11:04:18;;;;;;;7.10;3.10;;;20.70;57.20;21.80;101389.00;;;;4970275;28;20175;-50
2022/05/21 11:07:30;;;;;;;4.23;2.60;;;20.80;57.50;21.80;101386.00;;;;4989506;28;20205;-51
2022/05/21 11:10:18;;;;;;;5.20;3.00;;;20.80;57.40;21.90;101384.00;;;;4991948;28;20619;-50
2022/05/21 11:13:17;;;;;;;4.00;2.90;;;20.80;57.40;21.80;101380.00;;;;4991189;28;20177;-49
2022/05/21 11:15:53;;;;;;;7.73;3.03;;;20.90;57.40;21.80;101366.00;;;;4990934;28;20194;-50
2022/05/21 11:18:37;;;;;;;6.40;3.03;;;20.80;57.40;21.90;101367.00;;;;4990217;28;20680;-50
2022/05/21 11:21:21;;;;;;;4.80;2.80;;;20.90;57.80;21.90;101368.00;;;;5010434;28;20497;-50
2022/05/21 11:23:53;;;;;;;5.03;2.57;;;20.90;58.10;21.90;101367.00;;;;4994845;28;20148;-51